MMLP/LAP METAR and TAF weather

Enter ICAO airport designator
Station Type Date Time Source
MMLP METAR 2022/05/26 04:43 UTC NOAA

MMLP 260443Z 18004KT 10SM SKC 19/12 A2987


Station Type Date Time Source
MMLP Decoded METAR 2022/05/26 04:43 UTC NOAA

La Paz International Airport, Mexico (MMLP) 24-04N 110-22W
May 26, 2022 - 12:43 AM EDT / 2022.05.26 0443 UTC
Wind: from the S (180 degrees) at 5 MPH (4 KT):0
Visibility: 10 mile(s):0
Sky conditions: clear
Temperature: 66 F (19 C)
Dew Point: 53 F (12 C)
Relative Humidity: 63%
Pressure (altimeter): 29.87 in. Hg (1011 hPa)
ob: MMLP 260443Z 18004KT 10SM SKC 19/12 A2987
cycle: 4

Station Type Date Time Source
MMLP TAF 2022/05/26 06:55 UTC NOAA

TAF MMLP 260343Z 2606/2706 18005KT P6SM SKC
FM261800 35012KT P6SM SKC
FM270300 18005KT P6SM SKC

Example: see airport list